createdAt,value
2022-12-11T00:01:18.877Z,13.18
2022-12-11T00:03:48.568Z,10.90
2022-12-11T00:06:19.402Z,11.07
2022-12-11T00:08:47.925Z,10.40
2022-12-11T00:11:17.234Z,9.95
2022-12-11T00:13:45.759Z,9.63
2022-12-11T00:16:14.294Z,10.48
2022-12-11T00:18:42.664Z,7.80
2022-12-11T00:21:14.219Z,10.23
2022-12-11T00:23:42.691Z,10.10
2022-12-11T00:26:14.432Z,7.95
2022-12-11T00:28:43.687Z,7.18
2022-12-11T00:31:17.972Z,12.05
2022-12-11T00:33:47.320Z,10.80
2022-12-11T00:36:23.999Z,10.98
2022-12-11T00:38:53.145Z,12.18
2022-12-11T00:41:21.970Z,10.75
2022-12-11T00:43:50.445Z,10.50
2022-12-11T00:46:18.980Z,9.50
2022-12-11T00:48:47.339Z,10.48
2022-12-11T00:51:15.613Z,11.95
2022-12-11T00:53:44.416Z,12.77
2022-12-11T00:56:15.411Z,13.52
2022-12-11T00:58:44.256Z,14.05
2022-12-11T01:01:15.889Z,12.88
2022-12-11T01:03:45.053Z,11.25
2022-12-11T01:06:19.021Z,15.45
2022-12-11T01:08:48.147Z,14.27
2022-12-11T01:11:17.912Z,14.15
2022-12-11T01:13:46.147Z,12.55
2022-12-11T01:16:16.710Z,13.43
2022-12-11T01:18:45.202Z,12.93
2022-12-11T01:21:14.356Z,12.18
2022-12-11T01:23:42.791Z,8.52
2022-12-11T01:26:15.699Z,10.55
2022-12-11T01:28:45.062Z,11.60
2022-12-11T01:31:15.796Z,11.10
2022-12-11T01:33:44.546Z,12.50
2022-12-11T01:36:16.354Z,12.20
2022-12-11T01:38:45.280Z,11.00
2022-12-11T01:41:14.161Z,10.05
2022-12-11T01:44:04.441Z,10.32
2022-12-11T01:46:34.983Z,10.02
2022-12-11T01:49:07.780Z,9.00
2022-12-11T01:51:42.299Z,8.32
2022-12-11T01:54:14.215Z,8.77
2022-12-11T01:56:47.125Z,9.05
2022-12-11T01:59:18.710Z,9.25
2022-12-11T02:02:07.939Z,8.75
2022-12-11T02:04:39.720Z,13.07
2022-12-11T02:07:07.952Z,10.05
2022-12-11T02:09:38.518Z,8.32
2022-12-11T02:12:36.393Z,9.52
2022-12-11T02:15:27.271Z,10.75
2022-12-11T02:18:32.162Z,8.20
2022-12-11T02:21:18.477Z,11.45
2022-12-11T02:24:26.131Z,10.50
2022-12-11T02:27:04.539Z,10.93
2022-12-11T02:29:50.176Z,11.98
2022-12-11T02:32:27.791Z,11.00
2022-12-11T02:35:08.352Z,10.77
2022-12-11T02:37:39.599Z,9.50
2022-12-11T02:40:11.016Z,10.70
2022-12-11T02:42:41.571Z,11.10
2022-12-11T02:45:11.632Z,10.48
2022-12-11T02:47:40.845Z,11.43
2022-12-11T02:50:14.352Z,11.93
2022-12-11T02:52:45.475Z,11.27
2022-12-11T02:55:17.068Z,10.98
2022-12-11T02:58:04.866Z,12.25
2022-12-11T03:00:33.436Z,10.90
2022-12-11T03:03:02.353Z,11.77
2022-12-11T03:05:31.192Z,10.32
2022-12-11T03:07:59.549Z,12.25
2022-12-11T03:10:30.771Z,11.65
2022-12-11T03:13:01.073Z,13.17
2022-12-11T03:15:45.740Z,12.77
2022-12-11T03:18:28.104Z,11.70
2022-12-11T03:21:07.641Z,13.55
2022-12-11T03:23:56.082Z,13.07
2022-12-11T03:26:25.339Z,14.27
2022-12-11T03:28:59.463Z,13.77
2022-12-11T03:31:57.229Z,13.32
2022-12-11T03:34:48.559Z,14.23
2022-12-11T03:37:18.061Z,14.20
2022-12-11T03:39:50.851Z,14.88
2022-12-11T03:42:22.186Z,14.82
2022-12-11T03:44:52.729Z,16.33
2022-12-11T03:47:24.655Z,19.42
2022-12-11T03:49:54.319Z,19.75
2022-12-11T03:52:23.683Z,18.95
2022-12-11T03:54:53.001Z,21.30
2022-12-11T03:57:24.604Z,20.20
2022-12-11T03:59:52.949Z,22.05
2022-12-11T04:02:21.082Z,20.98
2022-12-11T04:04:49.392Z,19.45
2022-12-11T04:07:17.669Z,23.20
2022-12-11T04:09:45.879Z,20.20
2022-12-11T04:12:13.906Z,22.20
2022-12-11T04:14:42.235Z,20.95
2022-12-11T04:17:10.400Z,22.42
2022-12-11T04:19:38.771Z,22.08
2022-12-11T04:22:07.062Z,22.77
2022-12-11T04:24:35.288Z,22.95
2022-12-11T04:27:03.538Z,21.35
2022-12-11T04:29:31.702Z,21.38
2022-12-11T04:31:59.906Z,21.42
2022-12-11T04:34:28.186Z,22.50
2022-12-11T04:36:56.322Z,23.55
2022-12-11T04:39:24.441Z,23.00
2022-12-11T04:41:52.689Z,21.75
2022-12-11T04:44:20.785Z,20.90
2022-12-11T04:46:49.118Z,21.20
2022-12-11T04:49:17.511Z,22.60
2022-12-11T04:51:45.698Z,24.27
2022-12-11T04:54:13.874Z,27.27
2022-12-11T04:56:42.317Z,26.55
2022-12-11T04:59:10.545Z,28.38
2022-12-11T05:01:38.953Z,29.73
2022-12-11T05:04:07.336Z,29.80
2022-12-11T05:06:35.400Z,28.83
2022-12-11T05:09:03.753Z,28.40
2022-12-11T05:11:32.096Z,27.70
2022-12-11T05:14:00.132Z,26.80
2022-12-11T05:16:28.491Z,25.38
2022-12-11T05:18:57.065Z,22.20
2022-12-11T05:21:27.096Z,21.65
2022-12-11T05:23:58.791Z,19.13
2022-12-11T05:26:27.082Z,19.45
2022-12-11T05:28:56.124Z,20.75
2022-12-11T05:31:28.409Z,20.13
2022-12-11T05:33:56.785Z,20.45
2022-12-11T05:36:30.321Z,18.27
2022-12-11T05:39:00.003Z,18.75
2022-12-11T05:41:31.332Z,18.02
2022-12-11T05:44:00.150Z,16.80
2022-12-11T05:46:36.196Z,20.30
2022-12-11T05:49:08.665Z,21.02
2022-12-11T05:51:37.011Z,18.08
2022-12-11T05:54:05.330Z,17.00
2022-12-11T05:56:35.874Z,17.20
2022-12-11T05:59:06.341Z,13.98
2022-12-11T06:01:38.003Z,14.70
2022-12-11T06:04:07.862Z,13.48
2022-12-11T06:06:36.703Z,14.63
2022-12-11T06:09:06.476Z,14.57
2022-12-11T06:11:36.239Z,22.05
2022-12-11T06:14:05.196Z,16.42
2022-12-11T06:16:33.946Z,16.45
2022-12-11T06:19:02.342Z,16.55
2022-12-11T06:21:32.804Z,15.82
2022-12-11T06:24:03.179Z,15.48
2022-12-11T06:26:31.458Z,18.75
2022-12-11T06:28:59.825Z,17.23
2022-12-11T06:31:28.493Z,17.02
2022-12-11T06:33:56.906Z,15.52
2022-12-11T06:48:23.943Z,20.33
2022-12-11T06:50:52.319Z,23.33
2022-12-11T06:53:20.509Z,23.70
2022-12-11T06:55:48.945Z,21.30
2022-12-11T06:58:17.393Z,20.23
2022-12-11T07:00:45.560Z,20.15
2022-12-11T07:03:13.949Z,22.13
2022-12-11T07:05:42.096Z,19.52
2022-12-11T07:08:10.775Z,18.15
2022-12-11T07:10:39.109Z,19.60
2022-12-11T07:13:07.608Z,17.63
2022-12-11T07:15:40.220Z,16.02
2022-12-11T07:18:09.001Z,15.82
2022-12-11T07:20:39.643Z,16.05
2022-12-11T07:23:09.247Z,13.88
2022-12-11T07:25:38.396Z,15.43
2022-12-11T07:28:06.790Z,15.20
2022-12-11T07:30:35.203Z,14.98
2022-12-11T07:33:03.632Z,21.10
2022-12-11T07:35:32.095Z,22.65
2022-12-11T07:38:00.473Z,23.10
2022-12-11T07:40:28.818Z,20.63
2022-12-11T07:42:57.224Z,17.30
2022-12-11T07:45:26.910Z,21.90
2022-12-11T07:47:55.316Z,17.88
2022-12-11T07:50:23.874Z,21.38
2022-12-11T07:52:52.315Z,23.98
2022-12-11T07:55:20.517Z,29.27
2022-12-11T07:57:50.231Z,37.00
2022-12-11T08:00:18.987Z,32.90
2022-12-11T08:02:47.445Z,26.55
2022-12-11T08:05:15.830Z,24.33
2022-12-11T08:07:44.236Z,22.38
2022-12-11T08:10:12.489Z,24.48
2022-12-11T08:12:40.936Z,26.30
2022-12-11T08:15:09.917Z,31.25
2022-12-11T08:17:40.207Z,33.00
2022-12-11T08:20:09.247Z,32.45
2022-12-11T08:22:37.569Z,28.98
2022-12-11T08:25:06.287Z,26.30
2022-12-11T08:27:34.517Z,22.35
2022-12-11T08:30:02.942Z,21.60
2022-12-11T08:32:31.287Z,20.38
2022-12-11T08:34:59.836Z,19.40
2022-12-11T08:37:28.247Z,20.35
2022-12-11T08:39:56.506Z,17.42
2022-12-11T08:42:24.845Z,21.33
2022-12-11T08:44:53.207Z,16.85
2022-12-11T08:47:21.678Z,17.77
2022-12-11T08:49:50.140Z,16.80
2022-12-11T08:52:18.614Z,15.40
2022-12-11T08:54:47.054Z,16.35
2022-12-11T08:57:15.432Z,15.10
2022-12-11T08:59:43.807Z,14.85
2022-12-11T09:02:14.896Z,14.98
2022-12-11T09:04:43.131Z,13.43
2022-12-11T09:07:11.442Z,16.67
2022-12-11T09:09:39.883Z,14.52
2022-12-11T09:12:08.141Z,15.77
2022-12-11T09:14:36.975Z,15.35
2022-12-11T09:17:05.539Z,14.90
2022-12-11T09:19:33.722Z,14.30
2022-12-11T09:22:02.085Z,14.18
2022-12-11T09:24:30.356Z,15.27
2022-12-11T09:27:10.579Z,16.40
2022-12-11T09:29:39.986Z,15.32
2022-12-11T09:32:08.457Z,17.25
2022-12-11T09:34:36.702Z,18.20
2022-12-11T09:37:04.976Z,15.73
2022-12-11T09:39:33.499Z,16.90
2022-12-11T09:42:16.974Z,17.17
2022-12-11T09:44:52.308Z,13.65
2022-12-11T09:47:33.358Z,11.27
2022-12-11T09:50:10.997Z,8.57
2022-12-11T09:52:54.584Z,9.82
2022-12-11T09:55:24.745Z,7.03
2022-12-11T09:58:25.954Z,8.95
2022-12-11T10:01:05.068Z,9.52
2022-12-11T10:03:45.689Z,10.27
2022-12-11T10:06:16.977Z,11.02
2022-12-11T10:09:30.210Z,11.18
2022-12-11T10:12:04.516Z,12.75
2022-12-11T10:14:42.829Z,10.90
2022-12-11T10:17:26.132Z,13.30
2022-12-11T10:19:55.968Z,12.23
2022-12-11T10:22:31.795Z,11.07
2022-12-11T10:25:12.913Z,10.63
2022-12-11T10:27:42.095Z,13.03
2022-12-11T10:30:18.189Z,16.35
2022-12-11T10:32:55.060Z,15.90
2022-12-11T10:35:39.864Z,12.85
2022-12-11T10:38:16.706Z,12.98
2022-12-11T10:40:48.328Z,13.68
2022-12-11T10:43:16.906Z,11.43
2022-12-11T10:45:55.078Z,13.68
2022-12-11T10:48:23.616Z,12.48
2022-12-11T10:51:06.599Z,13.00
2022-12-11T10:53:35.254Z,12.65
2022-12-11T10:56:05.288Z,11.82
2022-12-11T10:58:38.350Z,13.05
2022-12-11T11:01:11.352Z,15.55
2022-12-11T11:04:05.224Z,10.82
2022-12-11T11:06:34.888Z,13.02
2022-12-11T11:09:03.520Z,12.48
2022-12-11T11:11:34.900Z,11.27
2022-12-11T11:14:17.015Z,10.40
2022-12-11T11:16:48.418Z,11.95
2022-12-11T11:19:34.151Z,11.13
2022-12-11T11:22:22.754Z,10.93
2022-12-11T11:24:57.417Z,12.93
2022-12-11T11:27:35.826Z,13.70
2022-12-11T11:30:09.040Z,12.85
2022-12-11T11:32:41.715Z,15.30
2022-12-11T11:35:12.933Z,21.30
2022-12-11T11:37:45.928Z,15.02
2022-12-11T11:40:14.313Z,13.88
2022-12-11T11:43:04.431Z,11.43
2022-12-11T11:46:05.687Z,10.63
2022-12-11T11:48:51.264Z,12.50
2022-12-11T11:51:36.464Z,10.23
2022-12-11T11:54:26.077Z,10.65
2022-12-11T11:56:56.716Z,8.20
2022-12-11T11:59:35.095Z,9.32
2022-12-11T12:02:14.103Z,9.20
2022-12-11T12:04:43.728Z,10.30
2022-12-11T12:07:23.299Z,8.80
2022-12-11T12:10:17.389Z,11.45
2022-12-11T12:12:58.188Z,9.15
2022-12-11T12:15:57.831Z,9.38
2022-12-11T12:18:48.537Z,7.78
2022-12-11T12:21:43.780Z,8.35
2022-12-11T12:24:15.540Z,6.97
2022-12-11T12:29:24.280Z,7.53
2022-12-11T12:32:11.426Z,6.82
2022-12-11T12:35:24.792Z,7.60
2022-12-11T12:37:56.287Z,6.95
2022-12-11T12:40:34.612Z,6.97
2022-12-11T12:43:33.352Z,7.57
2022-12-11T12:46:29.404Z,6.95
2022-12-11T12:49:01.917Z,7.78
2022-12-11T12:51:30.524Z,6.95
2022-12-11T12:54:03.219Z,8.48
2022-12-11T12:56:34.283Z,8.20
2022-12-11T12:59:02.665Z,6.95
2022-12-11T13:01:32.334Z,7.20
2022-12-11T13:04:06.587Z,6.88
2022-12-11T13:06:46.092Z,8.02
2022-12-11T13:09:28.464Z,7.75
2022-12-11T13:11:57.885Z,7.57
2022-12-11T13:14:31.760Z,6.32
2022-12-11T13:17:36.262Z,6.95
2022-12-11T13:20:26.687Z,7.35
2022-12-11T13:23:16.454Z,9.82
2022-12-11T13:25:47.645Z,9.50
2022-12-11T13:28:46.853Z,8.38
2022-12-11T13:31:15.296Z,8.93
2022-12-11T13:33:49.316Z,7.90
2022-12-11T13:36:29.134Z,7.38
2022-12-11T13:39:18.729Z,7.47
2022-12-11T13:41:51.024Z,8.45
2022-12-11T13:44:28.730Z,8.10
2022-12-11T13:47:00.601Z,7.65
2022-12-11T13:49:37.779Z,8.23
2022-12-11T13:52:06.843Z,7.95
2022-12-11T13:54:36.453Z,7.82
2022-12-11T13:57:07.805Z,7.82
2022-12-11T13:59:39.082Z,10.70
2022-12-11T14:02:20.834Z,10.13
2022-12-11T14:04:52.664Z,9.00
2022-12-11T14:10:32.899Z,7.80
2022-12-11T14:13:18.102Z,8.40
2022-12-11T14:15:47.000Z,8.25
2022-12-11T14:18:25.087Z,9.73
2022-12-11T14:20:58.472Z,8.98
2022-12-11T14:23:32.299Z,9.13
2022-12-11T14:26:17.245Z,7.93
2022-12-11T14:28:46.267Z,7.65
2022-12-11T14:31:21.962Z,8.05
2022-12-11T14:33:55.086Z,9.30
2022-12-11T14:36:24.417Z,7.95
2022-12-11T14:38:59.105Z,8.25
2022-12-11T14:41:46.659Z,8.70
2022-12-11T14:44:17.290Z,8.70
2022-12-11T14:46:52.222Z,9.52
2022-12-11T14:49:20.732Z,8.63
2022-12-11T14:51:50.411Z,7.22
2022-12-11T14:54:32.182Z,8.75
2022-12-11T14:57:02.209Z,8.65
2022-12-11T14:59:37.032Z,7.18
2022-12-11T15:02:24.640Z,9.93
2022-12-11T15:05:17.770Z,9.50
2022-12-11T15:08:15.393Z,8.02
2022-12-11T15:11:12.530Z,7.70
2022-12-11T15:13:55.527Z,8.30
2022-12-11T15:16:27.321Z,9.82
2022-12-11T15:18:56.699Z,9.13
2022-12-11T15:21:36.710Z,10.68
2022-12-11T15:24:06.808Z,10.13
2022-12-11T15:26:38.204Z,10.70
2022-12-11T15:29:39.551Z,12.25
2022-12-11T15:32:10.461Z,9.45
2022-12-11T15:34:50.884Z,11.43
2022-12-11T15:37:29.807Z,11.15
2022-12-11T15:40:00.497Z,8.60
2022-12-11T15:42:43.300Z,8.75
2022-12-11T15:45:20.496Z,7.80
2022-12-11T15:47:50.316Z,8.88
2022-12-11T15:50:24.270Z,9.02
2022-12-11T15:52:54.389Z,9.57
2022-12-11T15:55:24.148Z,9.23
2022-12-11T15:58:02.392Z,10.65
2022-12-11T16:00:30.608Z,11.50
2022-12-11T16:02:59.360Z,9.27
2022-12-11T16:05:28.089Z,9.27
2022-12-11T16:07:57.981Z,10.18
2022-12-11T16:10:26.996Z,8.30
2022-12-11T16:12:55.157Z,11.98
2022-12-11T16:15:24.263Z,11.38
2022-12-11T16:18:04.279Z,11.98
2022-12-11T16:20:33.007Z,10.20
2022-12-11T16:23:01.696Z,8.93
2022-12-11T16:25:29.885Z,8.88
2022-12-11T16:27:59.747Z,10.45
2022-12-11T16:30:29.818Z,8.88
2022-12-11T16:32:58.289Z,8.90
2022-12-11T16:35:26.814Z,10.73
2022-12-11T16:37:55.234Z,10.20
2022-12-11T16:40:24.237Z,10.15
2022-12-11T16:42:52.275Z,8.80
2022-12-11T16:45:23.022Z,11.18
2022-12-11T16:47:51.419Z,10.20
2022-12-11T16:50:20.024Z,9.90
2022-12-11T16:52:48.333Z,9.00
2022-12-11T16:55:16.512Z,10.73
2022-12-11T16:57:44.779Z,9.85
2022-12-11T17:00:13.482Z,11.30
2022-12-11T17:02:41.829Z,9.82
2022-12-11T17:05:10.698Z,9.20
2022-12-11T17:07:39.262Z,9.20
2022-12-11T17:10:08.018Z,10.57
2022-12-11T17:12:36.299Z,10.32
2022-12-11T17:15:04.651Z,9.48
2022-12-11T17:17:32.809Z,10.30
2022-12-11T17:20:01.031Z,9.13
2022-12-11T17:22:29.977Z,10.23
2022-12-11T17:24:58.039Z,10.57
2022-12-11T17:27:26.649Z,12.60
2022-12-11T17:29:54.844Z,11.40
2022-12-11T17:32:23.042Z,11.18
2022-12-11T17:34:51.368Z,11.73
2022-12-11T17:37:20.010Z,11.35
2022-12-11T17:39:48.066Z,10.73
2022-12-11T17:42:16.407Z,24.13
2022-12-11T17:44:44.749Z,23.48
2022-12-11T17:47:13.182Z,28.63
2022-12-11T17:49:41.802Z,22.70
2022-12-11T17:52:09.917Z,19.55
2022-12-11T17:54:38.314Z,16.15
2022-12-11T17:57:06.705Z,16.23
2022-12-11T17:59:35.070Z,40.70
2022-12-11T18:02:03.305Z,45.30
2022-12-11T18:04:31.537Z,19.25
2022-12-11T18:06:59.846Z,20.17
2022-12-11T18:09:28.308Z,14.18
2022-12-11T18:11:56.754Z,13.95
2022-12-11T18:14:25.045Z,18.48
2022-12-11T18:16:53.317Z,21.55
2022-12-11T18:19:21.526Z,14.32
2022-12-11T18:21:49.752Z,12.90
2022-12-11T18:24:17.946Z,16.10
2022-12-11T18:26:46.440Z,21.77
2022-12-11T18:29:15.035Z,17.20
2022-12-11T18:31:43.575Z,19.10
2022-12-11T18:34:12.313Z,16.02
2022-12-11T18:36:40.692Z,11.32
2022-12-11T18:39:09.511Z,11.98
2022-12-11T18:41:37.775Z,12.00
2022-12-11T18:44:09.736Z,15.30
2022-12-11T18:46:38.870Z,16.88
2022-12-11T18:49:07.660Z,17.92
2022-12-11T18:51:36.092Z,24.58
2022-12-11T18:54:04.480Z,17.45
2022-12-11T18:56:32.847Z,15.73
2022-12-11T18:59:03.765Z,14.32
2022-12-11T19:01:32.249Z,13.45
2022-12-11T19:04:06.535Z,17.90
2022-12-11T19:06:37.554Z,14.00
2022-12-11T19:09:07.939Z,13.50
2022-12-11T19:11:39.365Z,13.98
2022-12-11T19:14:09.003Z,13.68
2022-12-11T19:16:41.007Z,14.88
2022-12-11T19:19:14.197Z,15.50
2022-12-11T19:21:42.820Z,13.25
2022-12-11T19:24:14.574Z,17.95
2022-12-11T19:26:43.091Z,15.55
2022-12-11T19:29:18.240Z,13.48
2022-12-11T19:31:46.769Z,12.02
2022-12-11T19:34:16.935Z,14.85
2022-12-11T19:36:45.457Z,13.70
2022-12-11T19:39:13.981Z,12.57
2022-12-11T19:41:42.860Z,13.85
2022-12-11T19:44:11.322Z,15.10
2022-12-11T19:46:40.383Z,14.32
2022-12-11T19:49:08.750Z,13.48
2022-12-11T19:51:39.257Z,17.95
2022-12-11T19:54:09.857Z,24.77
2022-12-11T19:56:38.100Z,17.67
2022-12-11T19:59:08.746Z,24.65
2022-12-11T20:01:38.441Z,46.63
2022-12-11T20:04:10.749Z,18.13
2022-12-11T20:06:41.272Z,46.00
2022-12-11T20:09:11.169Z,46.30
2022-12-11T20:11:43.452Z,65.13
2022-12-11T20:14:21.723Z,87.25
2022-12-11T20:17:10.885Z,39.88
2022-12-11T20:19:40.201Z,34.17
2022-12-11T20:22:08.857Z,28.80
2022-12-11T20:24:37.466Z,26.58
2022-12-11T20:27:06.005Z,34.60
2022-12-11T20:29:34.174Z,56.63
2022-12-11T20:32:02.670Z,100.15
2022-12-11T20:34:31.288Z,25.55
2022-12-11T20:36:59.781Z,34.72
2022-12-11T20:39:28.131Z,30.48
2022-12-11T20:41:56.427Z,63.85
2022-12-11T20:44:24.794Z,77.18
2022-12-11T20:46:53.013Z,58.42
2022-12-11T20:49:21.294Z,46.95
2022-12-11T20:51:49.721Z,60.65
2022-12-11T20:54:17.832Z,40.22
2022-12-11T20:56:46.312Z,25.60
2022-12-11T20:59:14.708Z,36.92
2022-12-11T21:01:43.162Z,52.67
2022-12-11T21:04:12.331Z,44.47
2022-12-11T21:06:41.056Z,49.50
2022-12-11T21:11:52.996Z,53.20
2022-12-11T21:14:21.579Z,39.97
2022-12-11T21:16:49.801Z,33.60
2022-12-11T21:19:18.285Z,69.82
2022-12-11T21:21:49.033Z,46.83
2022-12-11T21:24:24.083Z,47.97
2022-12-11T21:26:53.182Z,37.60
2022-12-11T21:29:22.018Z,35.40
2022-12-11T21:31:50.429Z,26.20
2022-12-11T21:34:25.485Z,21.83
2022-12-11T21:36:55.040Z,20.02
2022-12-11T21:39:24.801Z,21.42
2022-12-11T21:41:54.190Z,20.77
2022-12-11T21:47:11.328Z,19.55
2022-12-11T21:49:39.750Z,22.15
2022-12-11T21:52:08.077Z,19.77
2022-12-11T21:54:36.650Z,19.77
2022-12-11T21:57:05.031Z,23.00
2022-12-11T21:59:33.678Z,32.50
2022-12-11T22:02:01.868Z,27.23
2022-12-11T22:04:30.108Z,19.27
2022-12-11T22:06:58.297Z,14.35
2022-12-11T22:09:26.766Z,12.65
2022-12-11T22:11:58.342Z,15.02
2022-12-11T22:14:27.707Z,16.23
2022-12-11T22:16:56.014Z,15.70
2022-12-11T22:19:29.097Z,15.85
2022-12-11T22:22:00.586Z,15.43
2022-12-11T22:24:28.860Z,13.13
2022-12-11T22:26:57.276Z,14.18
2022-12-11T22:29:25.593Z,12.63
2022-12-11T22:31:53.888Z,15.60
2022-12-11T22:34:23.397Z,19.75
2022-12-11T22:36:51.660Z,27.77
2022-12-11T22:39:20.138Z,20.48
2022-12-11T22:41:48.360Z,14.38
2022-12-11T22:44:19.023Z,13.10
2022-12-11T22:46:50.214Z,11.90
2022-12-11T22:49:19.988Z,9.45
2022-12-11T22:51:48.345Z,10.40
2022-12-11T22:54:17.105Z,14.23
2022-12-11T22:56:45.712Z,15.30
2022-12-11T22:59:14.157Z,16.38
2022-12-11T23:01:42.623Z,14.50
2022-12-11T23:04:10.892Z,14.57
2022-12-11T23:06:39.240Z,12.45
2022-12-11T23:09:07.766Z,14.63
2022-12-11T23:11:38.284Z,15.00
2022-12-11T23:14:08.675Z,14.80
2022-12-11T23:16:36.982Z,13.93
2022-12-11T23:19:05.388Z,12.90
2022-12-11T23:21:34.319Z,13.50
2022-12-11T23:24:03.693Z,12.30
2022-12-11T23:26:32.392Z,13.60
2022-12-11T23:29:00.934Z,12.70
2022-12-11T23:31:29.886Z,13.40
2022-12-11T23:33:58.122Z,12.57
2022-12-11T23:36:27.935Z,13.20
2022-12-11T23:38:56.760Z,12.63
2022-12-11T23:41:25.077Z,15.77
2022-12-11T23:43:53.596Z,13.57
2022-12-11T23:46:23.954Z,16.85
2022-12-11T23:48:53.323Z,21.00
2022-12-11T23:51:23.145Z,42.70
2022-12-11T23:53:51.692Z,40.35
2022-12-11T23:56:23.369Z,18.52
2022-12-11T23:58:52.395Z,12.23
